Time,TemperatureF,DewpointF,PressureIn,WindDirection,WindDirectionDegrees,WindSpeedMPH,WindSpeedGustMPH,Humidity,HourlyPrecipIn,Conditions,Clouds,dailyrainin,SoftwareType,DateUTC
2013-05-16 00:00:00,45.0,36.0,29.54,North,-999,-999.0,-999.0,70,-99.99,,,-99.99,,2013-05-15 23:00:00,
2013-05-16 00:41:00,45.0,36.0,29.54,North,-999,-999.0,-999.0,70,-99.99,,,-99.99,,2013-05-15 23:41:00,
2013-05-16 01:00:00,45.0,36.0,29.55,North,-999,-999.0,-999.0,70,-99.99,,,-99.99,,2013-05-16 00:00:00,
2013-05-16 01:42:00,45.0,36.0,29.55,North,-999,-999.0,-999.0,70,-99.99,,,-99.99,,2013-05-16 00:42:00,
2013-05-16 01:51:00,45.0,36.0,29.55,North,-999,-999.0,-999.0,70,-99.99,,,-99.99,,2013-05-16 00:51:00,
2013-05-16 02:00:00,44.0,35.0,29.54,North,-999,-999.0,-999.0,70,-99.99,,,-99.99,,2013-05-16 01:00:00,
2013-05-16 03:00:00,44.0,36.0,29.52,North,-999,-999.0,-999.0,72,-99.99,,,-99.99,,2013-05-16 02:00:00,
2013-05-16 04:00:00,45.0,37.0,29.52,North,-999,-999.0,-999.0,73,-99.99,,,-99.99,,2013-05-16 03:00:00,
2013-05-16 04:42:00,45.0,37.0,29.52,North,-999,-999.0,-999.0,73,-99.99,,,-99.99,,2013-05-16 03:42:00,
2013-05-16 04:53:00,45.0,37.0,29.52,North,-999,-999.0,-999.0,73,-99.99,,,-99.99,,2013-05-16 03:53:00,
2013-05-16 05:00:00,45.0,38.0,29.52,North,-999,-999.0,-999.0,75,-99.99,,,-99.99,,2013-05-16 04:00:00,
2013-05-16 05:42:00,45.0,38.0,29.52,North,-999,-999.0,-999.0,75,-99.99,,,-99.99,,2013-05-16 04:42:00,
2013-05-16 05:52:00,45.0,38.0,29.52,North,-999,-999.0,-999.0,75,-99.99,,,-99.99,,2013-05-16 04:52:00,
2013-05-16 06:00:00,46.0,39.0,29.53,North,-999,-999.0,-999.0,77,-99.99,,,-99.99,,2013-05-16 05:00:00,
2013-05-16 06:42:00,46.0,39.0,29.53,North,-999,-999.0,-999.0,77,-99.99,,,-99.99,,2013-05-16 05:42:00,
2013-05-16 06:52:00,46.0,39.0,29.53,North,-999,-999.0,-999.0,77,-99.99,,,-99.99,,2013-05-16 05:52:00,
2013-05-16 07:00:00,46.0,39.0,29.53,North,-999,-999.0,-999.0,76,-99.99,,,-99.99,,2013-05-16 06:00:00,
2013-05-16 07:42:00,46.0,39.0,29.53,North,-999,-999.0,-999.0,76,-99.99,,,-99.99,,2013-05-16 06:42:00,
2013-05-16 07:52:00,46.0,39.0,29.53,North,-999,-999.0,-999.0,76,-99.99,,,-99.99,,2013-05-16 06:52:00,
2013-05-16 08:00:00,47.0,41.0,29.53,North,-999,-999.0,-999.0,77,-99.99,,,-99.99,,2013-05-16 07:00:00,
2013-05-16 08:44:00,47.0,41.0,29.53,North,-999,-999.0,-999.0,77,-99.99,,,-99.99,,2013-05-16 07:44:00,
2013-05-16 08:54:00,47.0,41.0,29.53,North,-999,-999.0,-999.0,77,-99.99,,,-99.99,,2013-05-16 07:54:00,
2013-05-16 09:00:00,47.0,41.0,29.53,North,-999,-999.0,-999.0,81,-99.99,,,-99.99,,2013-05-16 08:00:00,
2013-05-16 09:34:00,47.0,41.0,29.53,North,-999,-999.0,-999.0,81,-99.99,,,-99.99,,2013-05-16 08:34:00,
2013-05-16 09:44:00,47.0,41.0,29.53,North,-999,-999.0,-999.0,81,-99.99,,,-99.99,,2013-05-16 08:44:00,
2013-05-16 09:54:00,47.0,41.0,29.53,North,-999,-999.0,-999.0,81,-99.99,,,-99.99,,2013-05-16 08:54:00,
2013-05-16 10:00:00,47.0,39.0,29.52,North,-999,-999.0,-999.0,71,-99.99,,,-99.99,,2013-05-16 09:00:00,
2013-05-16 10:45:00,47.0,39.0,29.52,North,-999,-999.0,-999.0,71,-99.99,,,-99.99,,2013-05-16 09:45:00,
2013-05-16 10:55:00,47.0,39.0,29.52,North,-999,-999.0,-999.0,71,-99.99,,,-99.99,,2013-05-16 09:55:00,
2013-05-16 11:00:00,47.0,39.0,29.51,North,-999,-999.0,-999.0,73,-99.99,,,-99.99,,2013-05-16 10:00:00,
2013-05-16 11:45:00,47.0,39.0,29.51,North,-999,-999.0,-999.0,73,-99.99,,,-99.99,,2013-05-16 10:45:00,
2013-05-16 11:56:00,47.0,39.0,29.51,North,-999,-999.0,-999.0,73,-99.99,,,-99.99,,2013-05-16 10:56:00,
2013-05-16 12:00:00,47.0,40.0,29.52,North,-999,-999.0,-999.0,77,-99.99,,,-99.99,,2013-05-16 11:00:00,
2013-05-16 12:45:00,47.0,40.0,29.52,North,-999,-999.0,-999.0,77,-99.99,,,-99.99,,2013-05-16 11:45:00,
2013-05-16 12:56:00,47.0,40.0,29.52,North,-999,-999.0,-999.0,77,-99.99,,,-99.99,,2013-05-16 11:56:00,
2013-05-16 13:00:00,46.0,41.0,29.51,North,-999,-999.0,-999.0,81,-99.99,,,-99.99,,2013-05-16 12:00:00,
2013-05-16 13:44:00,46.0,41.0,29.51,North,-999,-999.0,-999.0,81,-99.99,,,-99.99,,2013-05-16 12:44:00,
2013-05-16 13:53:00,46.0,41.0,29.51,North,-999,-999.0,-999.0,81,-99.99,,,-99.99,,2013-05-16 12:53:00,
2013-05-16 14:00:00,46.0,42.0,29.52,North,-999,-999.0,-999.0,88,-99.99,,,-99.99,,2013-05-16 13:00:00,
2013-05-16 14:43:00,46.0,42.0,29.52,North,-999,-999.0,-999.0,88,-99.99,,,-99.99,,2013-05-16 13:43:00,
2013-05-16 14:54:00,46.0,42.0,29.52,North,-999,-999.0,-999.0,88,-99.99,,,-99.99,,2013-05-16 13:54:00,
2013-05-16 15:00:00,47.0,43.0,29.52,North,-999,-999.0,-999.0,84,-99.99,,,-99.99,,2013-05-16 14:00:00,
2013-05-16 15:47:00,47.0,43.0,29.52,North,-999,-999.0,-999.0,84,-99.99,,,-99.99,,2013-05-16 14:47:00,
2013-05-16 15:55:00,47.0,43.0,29.52,North,-999,-999.0,-999.0,84,-99.99,,,-99.99,,2013-05-16 14:55:00,
2013-05-16 16:00:00,49.0,42.0,29.50,North,-999,-999.0,-999.0,77,-99.99,,,-99.99,,2013-05-16 15:00:00,
2013-05-16 16:50:00,49.0,42.0,29.50,North,-999,-999.0,-999.0,77,-99.99,,,-99.99,,2013-05-16 15:50:00,
2013-05-16 17:00:00,50.0,42.0,29.52,North,-999,-999.0,-999.0,72,-99.99,,,-99.99,,2013-05-16 16:00:00,
2013-05-16 17:50:00,50.0,42.0,29.52,North,-999,-999.0,-999.0,72,-99.99,,,-99.99,,2013-05-16 16:50:00,
2013-05-16 18:00:00,50.0,-99.9,29.54,North,-999,-999.0,-999.0,59,-99.99,,,-99.99,,2013-05-16 17:00:00,
2013-05-16 18:50:00,50.0,-99.9,29.54,North,-999,-999.0,-999.0,59,-99.99,,,-99.99,,2013-05-16 17:50:00,
2013-05-16 19:00:00,51.0,39.0,29.56,North,-999,-999.0,-999.0,62,-99.99,,,-99.99,,2013-05-16 18:00:00,
2013-05-16 20:00:00,52.0,-99.9,29.57,North,-999,-999.0,-999.0,64,-99.99,,,-99.99,,2013-05-16 19:00:00,
2013-05-16 20:50:00,52.0,-99.9,29.57,North,-999,-999.0,-999.0,64,-99.99,,,-99.99,,2013-05-16 19:50:00,
2013-05-16 21:00:00,48.0,42.0,29.58,North,-999,-999.0,-999.0,80,-99.99,,,-99.99,,2013-05-16 20:00:00,
2013-05-16 21:50:00,48.0,42.0,29.58,North,-999,-999.0,-999.0,80,-99.99,,,-99.99,,2013-05-16 20:50:00,
2013-05-16 22:00:00,48.0,42.0,29.62,North,-999,-999.0,-999.0,79,-99.99,,,-99.99,,2013-05-16 21:00:00,
2013-05-16 22:50:00,48.0,42.0,29.62,North,-999,-999.0,-999.0,79,-99.99,,,-99.99,,2013-05-16 21:50:00,
2013-05-16 23:00:00,47.0,41.0,29.64,North,-999,-999.0,-999.0,78,-99.99,,,-99.99,,2013-05-16 22:00:00,
2013-05-16 23:50:00,47.0,41.0,29.64,North,-999,-999.0,-999.0,78,-99.99,,,-99.99,,2013-05-16 22:50:00,